Time;durP1;ratioP1;P1;durP2;ratioP2;P2;SDS_P1;SDS_P2;PMS_P1;PMS_P2;Temp;Humidity;BMP_temperature;BMP_pressure;BME280_temperature;BME280_humidity;BME280_pressure;Samples;Min_cycle;Max_cycle;Signal;HPM_P1;HPM_P2
2023/09/19 00:00:38;;;;;;;7.40;2.72;;;15.40;99.90;;;;;;5056940;28;20183;-45
2023/09/19 00:03:06;;;;;;;9.43;2.60;;;15.30;99.90;;;;;;5056842;28;20648;-45
2023/09/19 00:05:34;;;;;;;9.48;2.58;;;15.40;99.90;;;;;;5056633;28;20167;-50
2023/09/19 00:08:03;;;;;;;8.75;2.50;;;15.40;99.90;;;;;;5056779;28;20172;-49
2023/09/19 00:10:34;;;;;;;8.30;2.83;;;15.30;99.90;;;;;;5056824;28;20556;-45
2023/09/19 00:13:07;;;;;;;7.13;2.40;;;15.30;99.90;;;;;;5056796;28;20183;-47
2023/09/19 00:15:41;;;;;;;5.43;2.38;;;15.30;99.90;;;;;;5056561;28;20216;-47
2023/09/19 00:18:08;;;;;;;7.85;2.90;;;15.30;99.90;;;;;;5056585;28;20259;-47
2023/09/19 00:20:36;;;;;;;6.05;2.17;;;15.20;99.90;;;;;;5056597;28;20226;-48
2023/09/19 00:23:08;;;;;;;8.88;2.60;;;15.20;99.90;;;;;;5056559;28;20187;-49
2023/09/19 00:25:35;;;;;;;6.25;2.45;;;15.00;99.90;;;;;;5056371;28;20174;-47
2023/09/19 00:28:01;;;;;;;5.45;2.42;;;15.10;99.90;;;;;;5056391;28;20167;-49
2023/09/19 00:30:27;;;;;;;7.13;2.47;;;15.00;99.90;;;;;;5056170;28;20175;-47
2023/09/19 00:32:53;;;;;;;8.00;2.50;;;15.20;99.90;;;;;;5056498;28;20186;-45
2023/09/19 00:35:24;;;;;;;6.68;2.53;;;15.10;99.90;;;;;;5056422;28;20183;-46
2023/09/19 00:37:51;;;;;;;6.65;2.15;;;15.10;99.90;;;;;;5056353;28;20183;-46
2023/09/19 00:40:17;;;;;;;6.00;2.22;;;14.90;99.90;;;;;;5056161;28;20583;-45
2023/09/19 00:42:43;;;;;;;6.53;2.33;;;14.90;99.90;;;;;;5056150;28;20168;-45
2023/09/19 00:45:11;;;;;;;7.65;2.53;;;14.90;99.90;;;;;;5055985;28;20258;-45
2023/09/19 00:47:39;;;;;;;6.75;2.78;;;14.80;99.90;;;;;;5056075;28;20215;-46
2023/09/19 00:50:10;;;;;;;9.20;2.53;;;14.70;99.90;;;;;;5056117;28;20175;-46
2023/09/19 00:52:38;;;;;;;7.95;2.70;;;14.90;99.90;;;;;;5054869;28;20175;-48
2023/09/19 00:55:05;;;;;;;4.90;2.25;;;14.80;99.90;;;;;;5055847;28;20182;-45
2023/09/19 00:57:32;;;;;;;5.90;2.10;;;14.80;99.90;;;;;;5054756;28;20651;-45
2023/09/19 00:59:59;;;;;;;6.32;2.60;;;14.80;99.90;;;;;;5055548;28;20579;-46
2023/09/19 01:02:28;;;;;;;4.28;2.15;;;14.70;99.90;;;;;;5056193;28;20207;-44
2023/09/19 01:04:55;;;;;;;8.32;2.72;;;14.80;99.90;;;;;;5055722;28;20179;-46
2023/09/19 01:07:22;;;;;;;8.88;2.80;;;14.80;99.90;;;;;;5055528;28;20707;-44
2023/09/19 01:09:48;;;;;;;9.50;2.60;;;14.80;99.90;;;;;;5055558;28;20179;-45
2023/09/19 01:12:22;;;;;;;6.75;2.53;;;14.80;99.90;;;;;;5055449;28;20713;-44
2023/09/19 01:15:00;;;;;;;6.15;2.60;;;14.80;99.90;;;;;;5055713;28;20225;-45
2023/09/19 01:18:00;;;;;;;6.80;2.53;;;14.80;99.90;;;;;;5055635;28;20175;-44
2023/09/19 01:20:56;;;;;;;5.20;2.22;;;14.80;99.90;;;;;;5055197;28;20223;-46
2023/09/19 01:23:36;;;;;;;9.57;2.83;;;14.80;99.90;;;;;;5055601;28;20172;-50
2023/09/19 01:26:08;;;;;;;11.93;2.95;;;14.70;99.90;;;;;;5055364;28;20204;-44
2023/09/19 01:28:47;;;;;;;7.70;2.60;;;14.70;99.90;;;;;;5055533;28;20156;-50
2023/09/19 01:31:19;;;;;;;6.82;2.50;;;14.70;99.90;;;;;;5055105;28;20655;-45
2023/09/19 01:34:04;;;;;;;5.20;2.13;;;14.70;99.90;;;;;;5055606;28;20174;-49
2023/09/19 01:36:35;;;;;;;9.27;2.78;;;14.80;99.90;;;;;;5055176;28;20201;-44
2023/09/19 01:39:05;;;;;;;6.00;2.33;;;14.80;99.90;;;;;;5055224;28;20183;-46
2023/09/19 01:41:58;;;;;;;7.30;2.35;;;14.80;99.90;;;;;;5054922;28;20160;-45
2023/09/19 01:44:44;;;;;;;7.82;2.45;;;14.80;99.90;;;;;;5052370;28;20187;-50
2023/09/19 01:47:27;;;;;;;7.15;2.30;;;14.90;99.90;;;;;;5054918;28;20223;-44
2023/09/19 01:50:20;;;;;;;10.93;3.13;;;14.90;99.90;;;;;;5054819;28;20213;-47
2023/09/19 01:52:53;;;;;;;6.68;2.33;;;14.90;99.90;;;;;;5055084;28;20237;-44
2023/09/19 01:55:24;;;;;;;7.30;2.22;;;14.80;99.90;;;;;;5054803;28;20209;-45
2023/09/19 01:58:07;;;;;;;6.05;2.65;;;14.80;99.90;;;;;;5054824;28;20222;-48
2023/09/19 02:00:39;;;;;;;5.93;2.20;;;14.90;99.90;;;;;;5054824;28;20167;-47
2023/09/19 02:03:08;;;;;;;6.45;2.50;;;14.70;99.90;;;;;;5054818;28;20224;-44
2023/09/19 02:05:34;;;;;;;8.05;2.55;;;14.70;99.90;;;;;;5054578;28;20206;-47
2023/09/19 02:08:00;;;;;;;7.28;2.42;;;14.70;99.90;;;;;;5054523;28;20613;-48
2023/09/19 02:10:26;;;;;;;8.18;2.70;;;14.70;99.90;;;;;;5054398;28;20172;-46
2023/09/19 02:12:51;;;;;;;10.55;2.88;;;14.70;99.90;;;;;;5054306;28;20229;-46
2023/09/19 02:15:18;;;;;;;6.03;2.65;;;14.70;99.90;;;;;;5054533;28;20182;-46
2023/09/19 02:17:45;;;;;;;9.27;2.88;;;14.70;99.90;;;;;;5054348;28;20575;-47
2023/09/19 02:20:14;;;;;;;7.70;3.08;;;14.70;99.90;;;;;;5054426;28;20245;-46
2023/09/19 02:22:41;;;;;;;7.85;2.78;;;14.70;99.90;;;;;;5054084;28;20509;-45
2023/09/19 02:25:08;;;;;;;6.45;2.88;;;14.70;99.90;;;;;;5054047;28;20218;-46
2023/09/19 02:27:33;;;;;;;8.02;2.67;;;14.80;99.90;;;;;;5054201;28;20218;-44
2023/09/19 02:30:02;;;;;;;7.20;2.50;;;14.80;99.90;;;;;;5053990;28;20180;-45
2023/09/19 02:32:29;;;;;;;7.95;3.13;;;14.70;99.90;;;;;;5054149;28;20198;-48
2023/09/19 02:34:55;;;;;;;6.60;2.72;;;14.70;99.90;;;;;;5054056;28;20217;-44
2023/09/19 02:37:21;;;;;;;8.02;2.55;;;14.80;99.90;;;;;;5053898;28;20203;-47
2023/09/19 02:39:47;;;;;;;10.40;2.90;;;14.80;99.90;;;;;;5053864;28;20171;-46
2023/09/19 02:42:12;;;;;;;7.30;3.10;;;14.80;99.90;;;;;;5054104;28;20187;-47
2023/09/19 02:44:39;;;;;;;9.07;3.33;;;14.80;99.90;;;;;;5054002;28;20236;-46
2023/09/19 02:47:05;;;;;;;10.40;3.13;;;14.80;99.90;;;;;;5053727;28;20215;-47
2023/09/19 02:49:31;;;;;;;8.20;3.00;;;14.90;99.90;;;;;;5053970;28;20183;-46
2023/09/19 02:51:58;;;;;;;7.07;2.72;;;15.00;99.90;;;;;;5053691;28;20644;-48
2023/09/19 02:54:24;;;;;;;10.65;2.95;;;15.00;99.90;;;;;;5053559;28;20280;-47
2023/09/19 02:56:50;;;;;;;9.23;3.00;;;15.00;99.90;;;;;;5053504;28;20636;-44
2023/09/19 02:59:16;;;;;;;10.27;2.95;;;15.10;99.90;;;;;;5053869;28;20595;-45
2023/09/19 03:01:43;;;;;;;9.35;3.15;;;15.00;99.90;;;;;;5053651;28;20168;-44
2023/09/19 03:04:11;;;;;;;11.20;3.38;;;15.00;99.90;;;;;;5053687;28;20175;-45
2023/09/19 03:06:38;;;;;;;9.55;2.70;;;15.00;99.90;;;;;;5053321;28;20713;-47
2023/09/19 03:09:12;;;;;;;7.22;2.53;;;15.20;99.90;;;;;;5053310;28;20661;-49
2023/09/19 03:11:40;;;;;;;11.73;3.25;;;15.20;99.90;;;;;;5053660;28;20501;-50
2023/09/19 03:14:05;;;;;;;11.52;3.22;;;15.10;99.90;;;;;;5053480;28;20185;-50
2023/09/19 03:16:31;;;;;;;11.32;3.20;;;15.20;99.90;;;;;;5053875;28;20182;-47
2023/09/19 03:18:59;;;;;;;8.98;2.92;;;15.20;99.90;;;;;;5052921;28;20560;-50
2023/09/19 03:21:25;;;;;;;9.63;3.00;;;15.20;99.90;;;;;;5053061;28;20222;-49
2023/09/19 03:23:51;;;;;;;9.43;3.00;;;15.20;99.90;;;;;;5053094;28;20174;-48
2023/09/19 03:26:17;;;;;;;9.70;3.15;;;15.20;99.90;;;;;;5053088;28;20298;-45
2023/09/19 03:28:43;;;;;;;8.48;2.90;;;15.10;99.90;;;;;;5053314;28;20262;-47
2023/09/19 03:31:09;;;;;;;11.25;3.05;;;15.00;99.90;;;;;;5053215;28;20266;-48
2023/09/19 03:33:35;;;;;;;9.32;3.00;;;15.00;99.90;;;;;;5053055;28;20198;-46
2023/09/19 03:36:05;;;;;;;9.35;2.88;;;15.10;99.90;;;;;;5053015;28;20183;-48
2023/09/19 03:38:32;;;;;;;9.73;2.80;;;14.90;99.90;;;;;;5053298;28;20175;-46
2023/09/19 03:40:58;;;;;;;9.88;3.15;;;14.80;99.90;;;;;;5053205;28;20183;-45
2023/09/19 03:43:24;;;;;;;7.80;2.58;;;14.90;99.90;;;;;;5053084;28;20232;-49
2023/09/19 03:45:50;;;;;;;8.60;2.83;;;14.90;99.90;;;;;;5052995;28;20278;-45
2023/09/19 03:48:17;;;;;;;7.78;3.05;;;14.90;99.90;;;;;;5053018;28;20175;-45
2023/09/19 03:50:43;;;;;;;9.68;2.75;;;15.00;99.90;;;;;;5052817;28;20293;-47
2023/09/19 03:53:09;;;;;;;8.10;2.90;;;15.00;99.90;;;;;;5052050;28;20552;-45
2023/09/19 03:55:35;;;;;;;8.65;2.70;;;14.90;99.90;;;;;;5053002;28;20179;-50
2023/09/19 03:58:01;;;;;;;8.98;2.85;;;14.80;99.90;;;;;;5052824;28;20179;-45
2023/09/19 04:00:29;;;;;;;6.22;2.70;;;15.00;99.90;;;;;;5053065;28;20179;-46
2023/09/19 04:02:56;;;;;;;6.95;2.30;;;14.90;99.90;;;;;;5052917;28;20667;-47
2023/09/19 04:05:22;;;;;;;7.05;2.95;;;14.90;99.90;;;;;;5052673;28;20203;-47
2023/09/19 04:07:48;;;;;;;7.10;2.53;;;14.90;99.90;;;;;;5052980;28;20225;-49
2023/09/19 04:10:14;;;;;;;9.65;3.10;;;15.00;99.90;;;;;;5053100;28;20556;-50
2023/09/19 04:12:40;;;;;;;7.13;2.60;;;15.00;99.90;;;;;;5052700;28;20188;-46
2023/09/19 04:15:13;;;;;;;8.20;2.58;;;14.90;99.90;;;;;;5052857;28;20180;-45
2023/09/19 04:17:39;;;;;;;10.65;3.03;;;14.80;99.90;;;;;;5052582;28;20233;-45
2023/09/19 04:20:06;;;;;;;10.30;2.67;;;14.80;99.90;;;;;;5051161;28;20719;-45
2023/09/19 04:22:32;;;;;;;10.05;3.50;;;14.80;99.90;;;;;;5051092;28;20688;-49
2023/09/19 04:24:57;;;;;;;8.77;2.80;;;14.80;99.90;;;;;;5051675;28;20183;-49
2023/09/19 04:27:24;;;;;;;9.30;2.92;;;14.70;99.90;;;;;;5052220;28;20268;-48
2023/09/19 04:29:53;;;;;;;13.13;3.42;;;14.60;99.90;;;;;;5052169;28;20188;-47
2023/09/19 04:32:18;;;;;;;8.73;3.42;;;14.70;99.90;;;;;;5054562;28;20251;-49
2023/09/19 04:34:44;;;;;;;10.52;3.22;;;14.70;99.90;;;;;;5055934;28;20275;-49
2023/09/19 04:37:10;;;;;;;12.13;3.22;;;14.60;99.90;;;;;;5056147;28;20648;-48
2023/09/19 04:39:36;;;;;;;9.75;3.72;;;14.60;99.90;;;;;;5056236;28;20206;-49
2023/09/19 04:42:03;;;;;;;13.43;3.22;;;14.60;99.90;;;;;;5056216;28;20253;-47
2023/09/19 04:44:28;;;;;;;8.60;2.80;;;14.50;99.90;;;;;;5054632;28;20662;-46
2023/09/19 04:46:54;;;;;;;12.25;3.08;;;14.50;99.90;;;;;;5054426;28;20187;-44
2023/09/19 04:49:20;;;;;;;9.27;2.88;;;14.50;99.90;;;;;;5054530;28;20190;-51
2023/09/19 04:51:46;;;;;;;9.05;2.75;;;14.50;99.90;;;;;;5055861;28;20555;-45
2023/09/19 04:54:12;;;;;;;11.88;3.15;;;14.50;99.90;;;;;;5054772;28;20184;-44
2023/09/19 04:56:40;;;;;;;8.05;2.50;;;14.50;99.90;;;;;;5055915;28;20241;-45
2023/09/19 04:59:06;;;;;;;10.45;2.90;;;14.50;99.90;;;;;;5055850;28;20206;-46
2023/09/19 05:01:31;;;;;;;8.77;2.95;;;14.60;99.90;;;;;;5054530;28;20582;-46
2023/09/19 05:03:58;;;;;;;8.77;3.20;;;14.50;99.90;;;;;;5055905;28;20203;-47
2023/09/19 05:06:26;;;;;;;9.60;3.10;;;14.60;99.90;;;;;;5055779;28;20207;-45
2023/09/19 05:08:52;;;;;;;10.30;3.05;;;14.50;99.90;;;;;;5055753;28;20225;-48
2023/09/19 05:11:22;;;;;;;8.80;3.25;;;14.50;99.90;;;;;;5055680;28;20267;-46
2023/09/19 05:13:52;;;;;;;12.52;3.33;;;14.50;99.90;;;;;;5055659;28;20199;-48
2023/09/19 05:16:18;;;;;;;10.20;3.13;;;14.50;99.90;;;;;;5055481;28;20266;-47
2023/09/19 05:18:44;;;;;;;10.80;2.83;;;14.60;99.90;;;;;;5055671;28;20675;-47
2023/09/19 05:21:10;;;;;;;6.30;2.60;;;14.50;99.90;;;;;;5055621;28;20227;-48
2023/09/19 05:23:36;;;;;;;8.93;3.10;;;14.50;99.90;;;;;;5055387;28;20175;-46
2023/09/19 05:26:03;;;;;;;12.13;2.88;;;14.50;99.90;;;;;;5055315;28;20252;-48
2023/09/19 05:28:29;;;;;;;9.85;3.33;;;14.40;99.90;;;;;;5055156;28;20191;-48
2023/09/19 05:30:55;;;;;;;9.75;3.17;;;14.40;99.90;;;;;;5055163;28;20183;-50
2023/09/19 05:33:21;;;;;;;11.73;3.28;;;14.40;99.90;;;;;;5055393;28;20178;-46
2023/09/19 05:35:48;;;;;;;10.60;3.42;;;14.30;99.90;;;;;;5055209;28;20167;-50
2023/09/19 05:38:15;;;;;;;10.50;3.17;;;14.40;99.90;;;;;;5055163;28;20727;-48
2023/09/19 05:40:42;;;;;;;10.07;3.30;;;14.50;99.90;;;;;;5055119;28;20176;-47
2023/09/19 05:43:08;;;;;;;10.15;3.38;;;14.40;99.90;;;;;;5054465;28;20648;-47
2023/09/19 05:45:37;;;;;;;13.40;3.60;;;14.40;99.90;;;;;;5054801;28;20702;-49
2023/09/19 05:48:15;;;;;;;11.05;3.55;;;14.50;99.90;;;;;;5055055;28;20286;-50
2023/09/19 05:50:41;;;;;;;11.07;3.72;;;14.50;99.90;;;;;;5054958;28;20713;-48
2023/09/19 05:53:08;;;;;;;12.23;3.55;;;14.40;99.90;;;;;;5054806;28;20183;-49
2023/09/19 05:55:34;;;;;;;8.32;2.72;;;14.40;99.90;;;;;;5054765;28;20180;-50
2023/09/19 05:57:59;;;;;;;10.15;3.33;;;14.60;99.90;;;;;;5054591;28;20667;-50
2023/09/19 06:00:27;;;;;;;10.75;3.00;;;14.60;99.90;;;;;;5054835;28;20207;-49
2023/09/19 06:02:57;;;;;;;11.93;3.38;;;14.60;99.90;;;;;;5054715;28;20171;-48
2023/09/19 06:05:26;;;;;;;10.35;3.72;;;14.50;99.90;;;;;;5054645;28;20225;-48
2023/09/19 06:07:52;;;;;;;12.05;3.70;;;14.60;99.90;;;;;;5054421;28;20238;-46
2023/09/19 06:10:20;;;;;;;12.88;3.38;;;14.70;99.90;;;;;;5053162;28;20211;-47
2023/09/19 06:12:46;;;;;;;10.10;3.50;;;14.70;99.90;;;;;;5054268;28;20270;-48
2023/09/19 06:15:15;;;;;;;12.45;3.40;;;14.60;99.90;;;;;;5054503;28;20244;-49
2023/09/19 06:17:55;;;;;;;9.25;3.22;;;14.60;99.90;;;;;;5054470;28;20179;-47
2023/09/19 06:20:22;;;;;;;13.60;3.17;;;14.70;99.90;;;;;;5054446;28;20223;-47
2023/09/19 06:22:48;;;;;;;11.30;3.30;;;14.70;99.90;;;;;;5054163;28;20190;-49
2023/09/19 06:25:19;;;;;;;8.38;3.15;;;14.70;99.90;;;;;;5054049;28;20222;-50
2023/09/19 06:27:48;;;;;;;14.50;3.58;;;14.90;99.90;;;;;;5054212;28;20552;-48
2023/09/19 06:30:15;;;;;;;10.52;3.28;;;14.90;99.90;;;;;;5054219;28;20166;-46
2023/09/19 06:32:44;;;;;;;9.65;3.58;;;15.00;99.90;;;;;;5054023;28;20183;-46
2023/09/19 06:35:14;;;;;;;13.90;3.15;;;15.00;99.90;;;;;;5054002;28;20187;-49
2023/09/19 06:37:41;;;;;;;11.13;2.92;;;15.00;99.90;;;;;;5053927;28;20186;-49
2023/09/19 06:40:13;;;;;;;10.73;3.47;;;15.10;99.90;;;;;;5054107;28;20170;-48
2023/09/19 06:42:45;;;;;;;9.93;2.90;;;15.00;99.90;;;;;;5054110;28;20190;-45
2023/09/19 06:45:13;;;;;;;8.85;3.17;;;15.10;99.90;;;;;;5053889;28;20203;-51
2023/09/19 06:47:39;;;;;;;12.82;3.17;;;15.10;99.90;;;;;;5053673;28;20664;-48
2023/09/19 06:50:08;;;;;;;15.27;3.70;;;15.10;99.90;;;;;;5053552;28;20209;-47
2023/09/19 06:52:35;;;;;;;10.27;3.03;;;15.20;99.90;;;;;;5053523;28;20179;-47
2023/09/19 06:55:03;;;;;;;10.20;2.78;;;15.20;99.90;;;;;;5052805;28;20704;-49
2023/09/19 06:57:28;;;;;;;7.65;3.22;;;15.30;99.90;;;;;;5053664;28;20654;-48
2023/09/19 06:59:54;;;;;;;8.13;2.92;;;15.30;99.90;;;;;;5053599;28;20180;-48
2023/09/19 07:02:21;;;;;;;9.52;3.30;;;15.30;99.90;;;;;;5053443;28;20175;-49
2023/09/19 07:04:47;;;;;;;9.68;3.08;;;15.20;99.90;;;;;;5053355;28;20183;-46
2023/09/19 07:07:13;;;;;;;10.98;3.20;;;15.30;99.90;;;;;;5053548;28;20591;-49
2023/09/19 07:09:39;;;;;;;8.77;2.92;;;15.40;99.90;;;;;;5053434;28;20628;-48
2023/09/19 07:12:05;;;;;;;9.25;3.22;;;15.40;99.90;;;;;;5053335;28;20225;-50
2023/09/19 07:14:32;;;;;;;8.63;2.50;;;15.40;99.90;;;;;;5053385;28;20225;-46
2023/09/19 07:16:59;;;;;;;11.20;3.05;;;15.50;99.90;;;;;;5053322;28;20179;-49
2023/09/19 07:19:28;;;;;;;9.30;2.88;;;15.50;99.90;;;;;;5053084;28;20215;-50
2023/09/19 07:21:53;;;;;;;8.70;3.10;;;15.50;99.90;;;;;;5053714;28;20181;-48
2023/09/19 07:24:22;;;;;;;12.55;3.22;;;15.60;99.90;;;;;;5053342;28;20603;-46
2023/09/19 07:26:48;;;;;;;9.57;2.83;;;15.70;99.90;;;;;;5053115;28;20216;-50
2023/09/19 07:29:14;;;;;;;7.05;3.00;;;15.70;99.90;;;;;;5053186;28;20171;-48
2023/09/19 07:31:39;;;;;;;11.43;3.13;;;15.70;99.90;;;;;;5053236;28;20599;-47
2023/09/19 07:34:05;;;;;;;8.15;2.80;;;15.90;99.90;;;;;;5053003;28;20183;-49
2023/09/19 07:36:32;;;;;;;8.50;3.00;;;16.00;99.90;;;;;;5053232;28;20194;-51
2023/09/19 07:38:58;;;;;;;11.68;3.22;;;16.10;99.90;;;;;;5053422;28;20179;-51
2023/09/19 07:41:24;;;;;;;7.78;2.58;;;16.10;99.90;;;;;;5051979;28;20510;-48
2023/09/19 07:43:49;;;;;;;9.18;2.53;;;16.20;99.90;;;;;;5053087;28;20578;-48
2023/09/19 07:46:15;;;;;;;12.95;3.00;;;16.20;99.90;;;;;;5052994;28;20194;-50
2023/09/19 07:48:48;;;;;;;10.23;3.03;;;16.30;99.90;;;;;;5052924;28;20178;-48
2023/09/19 07:51:15;;;;;;;7.75;2.83;;;16.30;99.90;;;;;;5053281;28;20179;-46
2023/09/19 07:53:42;;;;;;;8.55;2.70;;;16.30;99.90;;;;;;5053080;28;20682;-47
2023/09/19 07:56:09;;;;;;;13.13;3.30;;;16.30;99.90;;;;;;5052811;28;20568;-50
2023/09/19 07:58:37;;;;;;;6.93;2.63;;;16.40;99.90;;;;;;5052878;28;20206;-46
2023/09/19 08:01:06;;;;;;;11.80;2.97;;;16.40;99.90;;;;;;5052721;28;20175;-51
2023/09/19 08:03:40;;;;;;;9.63;2.75;;;16.60;99.90;;;;;;5052945;28;20175;-48
2023/09/19 08:06:06;;;;;;;13.93;3.05;;;16.60;99.90;;;;;;5055027;28;20211;-50
2023/09/19 08:08:39;;;;;;;9.43;3.13;;;16.60;99.90;;;;;;5056700;28;20674;-47
2023/09/19 08:11:12;;;;;;;10.05;2.90;;;16.50;99.90;;;;;;5056579;28;20167;-46
2023/09/19 08:13:45;;;;;;;9.52;2.50;;;16.60;99.90;;;;;;5056629;28;20171;-50
2023/09/19 08:16:10;;;;;;;11.52;2.92;;;16.70;99.90;;;;;;5056788;28;20179;-51
2023/09/19 08:18:40;;;;;;;14.73;3.15;;;16.80;99.90;;;;;;5056676;28;20168;-50
2023/09/19 08:21:10;;;;;;;11.88;3.08;;;17.00;99.90;;;;;;5056539;28;20257;-51
2023/09/19 08:23:39;;;;;;;7.85;2.85;;;17.10;99.90;;;;;;5056618;28;20163;-51
2023/09/19 08:26:08;;;;;;;12.55;3.25;;;17.30;99.90;;;;;;5056290;28;20597;-51
2023/09/19 08:28:35;;;;;;;12.82;3.10;;;17.40;99.90;;;;;;5056242;28;20221;-48
2023/09/19 08:31:04;;;;;;;9.75;2.80;;;17.50;99.90;;;;;;5056420;28;20659;-49
2023/09/19 08:33:32;;;;;;;10.32;2.90;;;17.70;99.90;;;;;;5056254;28;20641;-49
2023/09/19 08:36:01;;;;;;;8.32;3.25;;;17.80;99.90;;;;;;5056189;28;20175;-47
2023/09/19 08:38:30;;;;;;;10.05;2.45;;;17.90;99.90;;;;;;5056202;28;20222;-50
2023/09/19 08:41:07;;;;;;;7.50;2.78;;;17.90;99.90;;;;;;5055856;28;20186;-49
2023/09/19 08:43:34;;;;;;;15.35;3.40;;;17.90;99.90;;;;;;5056310;28;20205;-49
2023/09/19 08:46:05;;;;;;;10.40;3.28;;;18.00;99.90;;;;;;5055877;28;20628;-51
2023/09/19 08:48:32;;;;;;;9.30;3.25;;;17.90;99.90;;;;;;5056079;28;20198;-51
2023/09/19 08:51:07;;;;;;;8.15;2.40;;;18.00;99.90;;;;;;5055983;28;20563;-48
2023/09/19 08:53:50;;;;;;;11.25;3.10;;;18.00;99.90;;;;;;5055911;28;20171;-46
2023/09/19 08:56:18;;;;;;;11.30;3.28;;;18.00;99.90;;;;;;5056178;28;20221;-47
2023/09/19 08:59:01;;;;;;;12.32;3.00;;;18.10;99.90;;;;;;5055905;28;20179;-46
2023/09/19 09:01:28;;;;;;;12.27;2.63;;;18.00;99.90;;;;;;5055919;28;20631;-48
2023/09/19 09:03:55;;;;;;;9.85;2.90;;;17.90;99.90;;;;;;5055943;28;20183;-51
2023/09/19 09:06:23;;;;;;;6.57;2.50;;;17.90;99.90;;;;;;5055471;28;20537;-48
2023/09/19 09:08:50;;;;;;;7.82;2.65;;;17.90;99.90;;;;;;5055757;28;20210;-47
2023/09/19 09:11:17;;;;;;;10.80;2.67;;;17.90;99.90;;;;;;5055577;28;20270;-46
2023/09/19 09:13:47;;;;;;;8.40;2.60;;;18.00;99.90;;;;;;5055579;28;20176;-48
2023/09/19 09:16:18;;;;;;;8.73;2.70;;;17.90;99.90;;;;;;5054756;28;20540;-48
2023/09/19 09:18:54;;;;;;;7.60;2.10;;;18.00;99.90;;;;;;5054495;28;20167;-48
2023/09/19 09:21:21;;;;;;;7.63;2.60;;;18.00;99.90;;;;;;5054983;28;20302;-49
2023/09/19 09:23:47;;;;;;;9.23;2.63;;;18.10;99.90;;;;;;5054737;28;20182;-47
2023/09/19 09:26:13;;;;;;;8.85;2.80;;;18.00;99.90;;;;;;5054595;28;20596;-48
2023/09/19 09:28:45;;;;;;;8.95;1.98;;;18.00;99.90;;;;;;5054469;28;20195;-50
2023/09/19 09:31:24;;;;;;;5.78;1.95;;;17.90;99.90;;;;;;5054848;28;20361;-51
2023/09/19 09:33:57;;;;;;;8.60;2.53;;;17.90;99.90;;;;;;5054626;28;20182;-47
2023/09/19 09:36:41;;;;;;;6.72;2.30;;;17.90;99.90;;;;;;5054659;28;20183;-48
2023/09/19 09:39:18;;;;;;;7.57;2.50;;;17.90;99.90;;;;;;5054481;28;20548;-50
2023/09/19 09:41:43;;;;;;;8.25;2.63;;;18.00;99.90;;;;;;5054798;28;20182;-46
2023/09/19 09:44:17;;;;;;;5.93;2.22;;;18.10;99.90;;;;;;5054692;28;20175;-49
2023/09/19 09:47:27;;;;;;;5.85;2.13;;;18.20;99.90;;;;;;5054474;28;20203;-51
2023/09/19 09:49:36;;;;;;;8.65;2.20;;;18.30;99.90;;;;;;5054161;28;20223;-48
2023/09/19 09:52:06;;;;;;;7.65;2.20;;;18.30;99.90;;;;;;5054557;28;20502;-46
2023/09/19 09:54:36;;;;;;;6.50;2.00;;;18.30;99.90;;;;;;5054490;28;20193;-46
2023/09/19 09:57:21;;;;;;;7.53;2.50;;;18.50;99.90;;;;;;5054264;28;20221;-49
2023/09/19 09:59:46;;;;;;;8.05;2.00;;;18.70;99.90;;;;;;5054147;28;20186;-48
2023/09/19 10:02:28;;;;;;;5.32;2.00;;;18.70;99.90;;;;;;5053988;28;20171;-45
2023/09/19 10:04:59;;;;;;;6.05;2.03;;;18.90;99.90;;;;;;5054265;28;20230;-45
2023/09/19 10:07:42;;;;;;;7.22;1.88;;;19.00;99.90;;;;;;5054131;28;20220;-47
2023/09/19 10:10:23;;;;;;;4.53;1.92;;;19.20;99.90;;;;;;5053905;28;20640;-51
2023/09/19 10:12:52;;;;;;;6.43;2.10;;;19.20;99.90;;;;;;5054313;28;20247;-47
2023/09/19 10:15:24;;;;;;;6.07;1.90;;;19.20;99.90;;;;;;5053917;28;20529;-45
2023/09/19 10:17:56;;;;;;;4.72;1.98;;;19.40;99.90;;;;;;5054050;28;20180;-45
2023/09/19 10:20:32;;;;;;;7.30;1.88;;;19.50;99.90;;;;;;5053861;28;20339;-48
2023/09/19 10:22:59;;;;;;;6.40;1.90;;;19.50;99.90;;;;;;5053710;28;20175;-45
2023/09/19 10:25:33;;;;;;;7.85;1.95;;;19.50;99.90;;;;;;5052829;28;20176;-47
2023/09/19 10:28:04;;;;;;;7.55;1.85;;;19.70;99.90;;;;;;5053452;28;20705;-45
2023/09/19 10:30:34;;;;;;;8.07;2.00;;;19.70;99.90;;;;;;5052979;28;20700;-46
2023/09/19 10:33:05;;;;;;;6.70;2.13;;;19.70;99.90;;;;;;5053831;28;20233;-48
2023/09/19 10:35:33;;;;;;;7.97;1.67;;;19.90;99.90;;;;;;5053603;28;20290;-47
2023/09/19 10:38:03;;;;;;;7.38;1.98;;;20.00;99.90;;;;;;5053803;28;20179;-50
2023/09/19 10:40:32;;;;;;;5.03;1.60;;;20.10;99.90;;;;;;5054088;28;20202;-48
2023/09/19 10:43:05;;;;;;;5.72;1.60;;;20.20;99.90;;;;;;5053515;28;20207;-48
2023/09/19 10:45:32;;;;;;;5.20;1.60;;;20.20;99.90;;;;;;5053444;28;20203;-50
2023/09/19 10:47:58;;;;;;;5.00;1.60;;;20.10;99.90;;;;;;5053422;28;20265;-48
2023/09/19 10:50:25;;;;;;;7.47;1.60;;;20.30;99.90;;;;;;5052548;28;20175;-46
2023/09/19 10:52:58;;;;;;;5.63;1.42;;;20.20;99.90;;;;;;5053586;28;20168;-48
2023/09/19 10:55:27;;;;;;;4.82;1.80;;;20.40;99.90;;;;;;5053690;28;20183;-47
2023/09/19 10:57:53;;;;;;;4.97;1.55;;;20.50;99.90;;;;;;5053309;28;20183;-46
2023/09/19 11:00:26;;;;;;;6.90;1.60;;;20.40;99.90;;;;;;5053269;28;20216;-48
2023/09/19 11:03:23;;;;;;;2.05;1.20;;;20.40;99.90;;;;;;5053346;28;20184;-47
2023/09/19 11:06:04;;;;;;;5.68;1.50;;;20.10;99.90;;;;;;5053174;28;20171;-47
2023/09/19 11:08:49;;;;;;;3.30;1.40;;;20.10;99.90;;;;;;5053189;28;20374;-46
2023/09/19 11:11:39;;;;;;;6.13;1.40;;;20.10;99.90;;;;;;5053553;28;20194;-49
2023/09/19 11:14:23;;;;;;;5.65;1.65;;;20.40;99.90;;;;;;5053437;28;20186;-47
2023/09/19 11:17:08;;;;;;;3.35;1.13;;;20.50;99.90;;;;;;5053115;28;20294;-46
2023/09/19 11:22:49;;;;;;;4.10;1.30;;;20.70;99.90;;;;;;5053194;28;20183;-50
2023/09/19 11:25:30;;;;;;;3.50;1.08;;;20.60;99.90;;;;;;5052825;28;20174;-49
2023/09/19 11:28:08;;;;;;;3.35;1.02;;;20.30;99.90;;;;;;5052663;28;20679;-49
2023/09/19 11:30:39;;;;;;;3.35;1.30;;;20.40;99.90;;;;;;5052950;28;20269;-48
2023/09/19 11:33:31;;;;;;;3.53;1.20;;;20.30;99.90;;;;;;5052969;28;20271;-51
2023/09/19 11:36:15;;;;;;;3.30;1.13;;;20.20;99.90;;;;;;5053266;28;20276;-50
2023/09/19 11:38:49;;;;;;;4.18;1.20;;;20.00;99.90;;;;;;5052918;28;20170;-49
2023/09/19 11:41:28;;;;;;;3.72;1.23;;;20.00;99.90;;;;;;5052322;28;20167;-51
2023/09/19 11:44:00;;;;;;;3.33;1.00;;;19.80;99.90;;;;;;5052645;28;20215;-49
2023/09/19 11:46:31;;;;;;;5.32;1.33;;;19.90;99.90;;;;;;5052461;28;20205;-50
2023/09/19 11:49:10;;;;;;;4.28;1.20;;;19.80;99.90;;;;;;5052898;28;20190;-48
2023/09/19 11:51:44;;;;;;;4.00;1.23;;;19.70;99.90;;;;;;5052741;28;20183;-47
2023/09/19 11:54:17;;;;;;;3.25;1.10;;;19.60;99.90;;;;;;5051546;28;20175;-48
2023/09/19 11:56:45;;;;;;;1.75;1.23;;;19.60;99.90;;;;;;5052574;28;20579;-50
2023/09/19 11:59:11;;;;;;;4.40;1.20;;;19.70;99.90;;;;;;5053052;28;20179;-49
2023/09/19 12:01:43;;;;;;;3.45;1.13;;;19.90;99.90;;;;;;5052461;28;20225;-49
2023/09/19 12:04:11;;;;;;;4.60;1.40;;;20.00;99.90;;;;;;5052680;28;20171;-49
2023/09/19 12:06:38;;;;;;;5.25;1.30;;;20.10;99.90;;;;;;5052430;28;20704;-46
2023/09/19 12:09:10;;;;;;;4.10;1.10;;;20.20;99.90;;;;;;5052509;28;20172;-47
2023/09/19 12:11:43;;;;;;;4.05;1.10;;;20.20;99.90;;;;;;5052686;28;20195;-46
2023/09/19 12:14:09;;;;;;;4.20;1.27;;;20.40;99.90;;;;;;5052715;28;20193;-47
2023/09/19 12:16:36;;;;;;;5.43;1.40;;;20.40;99.90;;;;;;5052532;28;20237;-46
2023/09/19 12:19:22;;;;;;;2.40;1.23;;;20.40;99.90;;;;;;5052421;28;20551;-47
2023/09/19 12:21:59;;;;;;;3.58;1.15;;;20.20;99.90;;;;;;5052618;28;20186;-51
2023/09/19 12:24:29;;;;;;;3.20;1.52;;;20.10;99.90;;;;;;5052535;28;20171;-47
2023/09/19 12:27:04;;;;;;;3.75;1.20;;;20.00;99.90;;;;;;5052486;28;20269;-46
2023/09/19 12:29:31;;;;;;;4.78;1.30;;;20.00;99.90;;;;;;5052387;28;20186;-49
2023/09/19 12:32:03;;;;;;;5.43;1.30;;;19.90;99.90;;;;;;5052155;28;20250;-51
2023/09/19 12:34:35;;;;;;;3.20;1.30;;;19.60;99.90;;;;;;5052080;28;20207;-48
2023/09/19 12:37:11;;;;;;;3.33;1.10;;;19.50;99.90;;;;;;5052572;28;20230;-49
2023/09/19 12:39:37;;;;;;;3.40;1.27;;;19.50;99.90;;;;;;5052545;28;20175;-45
2023/09/19 12:42:08;;;;;;;4.78;1.50;;;19.50;99.90;;;;;;5052166;28;20187;-50
2023/09/19 12:44:36;;;;;;;5.35;1.30;;;19.40;99.90;;;;;;5052223;28;20171;-46
2023/09/19 12:47:19;;;;;;;5.95;1.63;;;19.30;99.90;;;;;;5051984;28;20203;-49
2023/09/19 12:50:13;;;;;;;4.55;1.27;;;19.40;99.90;;;;;;5052281;28;20183;-48
2023/09/19 12:52:41;;;;;;;4.90;1.73;;;19.40;99.90;;;;;;5053363;28;20171;-45
2023/09/19 12:55:07;;;;;;;3.08;1.23;;;19.30;99.90;;;;;;5055793;28;20174;-48
2023/09/19 12:57:34;;;;;;;3.78;1.75;;;19.30;99.90;;;;;;5055610;28;20266;-48
2023/09/19 13:00:10;;;;;;;6.80;1.45;;;19.40;99.90;;;;;;5055632;28;20628;-48